Upstream stations:
Downstream station:
SHEF ID: CTSO2 Bird Ck at State Highway 266 nea
STATION TYPE:
Regulating: Stage = 26.00, Flow = 19355
STAGE STAGE(2) RIV-FLOW WTR-TEMP DIS-OXY PH CONDUCT BAT-LOAD
ft ft cfs F mg/l su umho/cm volt
Ccp-Rev Ccp-Rev Ccp-Rev Ccp-Rev Ccp-Rev Ccp-Rev Ccp-Rev Ccp-Rev
(US/Central)
03/02 00:00 4.82 4.84 362 49.44 ---- 7.91 525 12.61
03/02 01:00 4.82 4.82 362 49.28 ---- 7.91 523 12.58
03/02 02:00 4.81 4.82 359 49.05 ---- 7.90 475 12.56
03/02 03:00 4.81 4.82 359 48.74 ---- 7.90 500 12.53
03/02 04:00 4.79 4.81 352 48.42 ---- 7.89 459 12.51
03/02 05:00 4.77 4.81 346 48.06 ---- 7.89 522 12.48
03/02 06:00 4.79 4.81 352 47.71 ---- 7.88 479 12.47
03/02 07:00 4.75 4.80 339 47.46 ---- 7.87 511 12.44
03/02 08:00 4.76 4.79 343 47.43 ---- 7.87 539 13.26
03/02 09:00 4.76 4.81 343 47.52 ---- 7.88 541 13.91
03/02 10:00 4.81 4.83 359 47.73 ---- 7.88 538 13.69
03/02 11:00 4.80 4.85 356 47.95 ---- 7.89 538 13.49
03/02 12:00 4.84 4.86 369 48.20 ---- 7.90 436 13.35
03/02 13:00 4.83 4.86 366 48.45 ---- 7.92 470 13.25
03/02 14:00 4.83 4.85 366 48.70 ---- 7.93 465 13.15
03/02 15:00 4.80 4.85 356 48.96 ---- 7.94 538 13.06
03/02 16:00 4.82 4.83 362 49.24 ---- 7.94 538 13.01
03/02 17:00 4.80 4.83 356 49.48 ---- 7.93 547 12.98
03/02 18:00 4.79 4.82 352 49.66 ---- 7.93 553 12.93
03/02 19:00 4.80 4.82 356 49.89 ---- 7.92 559 12.77
03/02 20:00 4.77 4.82 346 50.09 ---- 7.92 561 12.72
03/02 21:00 4.78 4.80 349 50.32 ---- 7.92 562 12.70
03/02 22:00 4.78 4.80 349 50.50 ---- 7.92 563 12.67
03/02 23:00 4.77 4.81 346 50.54 ---- 7.92 565 12.63